sensor_id;sensor_type;location;lat;lon;timestamp;P1;durP1;ratioP1;P2;durP2;ratioP2
69854;SDS011;57146;48.140;16.304;2023-04-24T00:00:34;3.75;;;1.13;;
69854;SDS011;57146;48.140;16.304;2023-04-24T00:03:02;4.17;;;1.23;;
69854;SDS011;57146;48.140;16.304;2023-04-24T00:05:29;4.47;;;1.50;;
69854;SDS011;57146;48.140;16.304;2023-04-24T00:07:56;4.32;;;1.25;;
69854;SDS011;57146;48.140;16.304;2023-04-24T00:10:23;3.85;;;1.08;;
69854;SDS011;57146;48.140;16.304;2023-04-24T00:12:53;4.70;;;1.23;;
69854;SDS011;57146;48.140;16.304;2023-04-24T00:15:20;4.63;;;1.20;;
69854;SDS011;57146;48.140;16.304;2023-04-24T00:17:47;3.80;;;0.98;;
69854;SDS011;57146;48.140;16.304;2023-04-24T00:20:17;4.20;;;1.17;;
69854;SDS011;57146;48.140;16.304;2023-04-24T00:22:44;4.72;;;1.40;;
69854;SDS011;57146;48.140;16.304;2023-04-24T00:25:12;3.53;;;1.05;;
69854;SDS011;57146;48.140;16.304;2023-04-24T00:27:41;4.00;;;1.00;;
69854;SDS011;57146;48.140;16.304;2023-04-24T00:30:11;4.28;;;1.20;;
69854;SDS011;57146;48.140;16.304;2023-04-24T00:32:38;3.70;;;1.27;;
69854;SDS011;57146;48.140;16.304;2023-04-24T00:35:05;4.57;;;1.48;;
69854;SDS011;57146;48.140;16.304;2023-04-24T00:37:32;4.13;;;1.33;;
69854;SDS011;57146;48.140;16.304;2023-04-24T00:39:59;4.80;;;1.30;;
69854;SDS011;57146;48.140;16.304;2023-04-24T00:42:26;4.43;;;1.33;;
69854;SDS011;57146;48.140;16.304;2023-04-24T00:44:57;4.15;;;1.40;;
69854;SDS011;57146;48.140;16.304;2023-04-24T00:47:50;3.30;;;0.98;;
69854;SDS011;57146;48.140;16.304;2023-04-24T00:50:20;3.65;;;1.15;;
69854;SDS011;57146;48.140;16.304;2023-04-24T00:52:49;4.20;;;1.10;;
69854;SDS011;57146;48.140;16.304;2023-04-24T00:55:19;5.07;;;1.15;;
69854;SDS011;57146;48.140;16.304;2023-04-24T00:57:48;3.90;;;1.20;;
69854;SDS011;57146;48.140;16.304;2023-04-24T01:00:17;4.03;;;1.23;;
69854;SDS011;57146;48.140;16.304;2023-04-24T01:02:44;4.38;;;1.42;;
69854;SDS011;57146;48.140;16.304;2023-04-24T01:05:13;6.87;;;1.50;;
69854;SDS011;57146;48.140;16.304;2023-04-24T01:07:45;4.82;;;1.30;;
69854;SDS011;57146;48.140;16.304;2023-04-24T01:10:13;5.65;;;1.40;;
69854;SDS011;57146;48.140;16.304;2023-04-24T01:12:44;4.30;;;1.30;;
69854;SDS011;57146;48.140;16.304;2023-04-24T01:15:11;4.40;;;1.50;;
69854;SDS011;57146;48.140;16.304;2023-04-24T01:17:39;4.73;;;1.70;;
69854;SDS011;57146;48.140;16.304;2023-04-24T01:20:06;5.00;;;1.60;;
69854;SDS011;57146;48.140;16.304;2023-04-24T01:22:36;4.65;;;1.90;;
69854;SDS011;57146;48.140;16.304;2023-04-24T01:25:03;5.20;;;1.80;;
69854;SDS011;57146;48.140;16.304;2023-04-24T01:27:31;4.95;;;1.75;;
69854;SDS011;57146;48.140;16.304;2023-04-24T01:29:59;4.67;;;1.77;;
69854;SDS011;57146;48.140;16.304;2023-04-24T01:32:29;6.45;;;1.60;;
69854;SDS011;57146;48.140;16.304;2023-04-24T01:34:56;5.45;;;1.70;;
69854;SDS011;57146;48.140;16.304;2023-04-24T01:37:24;4.82;;;1.42;;
69854;SDS011;57146;48.140;16.304;2023-04-24T01:39:51;5.07;;;1.80;;
69854;SDS011;57146;48.140;16.304;2023-04-24T01:42:18;3.90;;;1.40;;
69854;SDS011;57146;48.140;16.304;2023-04-24T01:44:46;5.95;;;1.55;;
69854;SDS011;57146;48.140;16.304;2023-04-24T01:47:14;5.30;;;1.55;;
69854;SDS011;57146;48.140;16.304;2023-04-24T01:49:43;4.28;;;1.40;;
69854;SDS011;57146;48.140;16.304;2023-04-24T01:52:13;5.85;;;1.65;;
69854;SDS011;57146;48.140;16.304;2023-04-24T01:54:40;4.20;;;1.33;;
69854;SDS011;57146;48.140;16.304;2023-04-24T01:57:07;4.78;;;1.30;;
69854;SDS011;57146;48.140;16.304;2023-04-24T01:59:37;5.53;;;1.52;;
69854;SDS011;57146;48.140;16.304;2023-04-24T02:02:05;5.80;;;1.20;;
69854;SDS011;57146;48.140;16.304;2023-04-24T02:04:34;4.45;;;1.20;;
69854;SDS011;57146;48.140;16.304;2023-04-24T02:07:03;4.80;;;1.20;;
69854;SDS011;57146;48.140;16.304;2023-04-24T02:09:32;3.88;;;0.90;;
69854;SDS011;57146;48.140;16.304;2023-04-24T02:11:59;4.07;;;1.05;;
69854;SDS011;57146;48.140;16.304;2023-04-24T02:14:26;3.17;;;0.90;;
69854;SDS011;57146;48.140;16.304;2023-04-24T02:17:18;2.97;;;0.70;;
69854;SDS011;57146;48.140;16.304;2023-04-24T02:19:46;3.40;;;0.73;;
69854;SDS011;57146;48.140;16.304;2023-04-24T02:22:12;3.70;;;0.68;;
69854;SDS011;57146;48.140;16.304;2023-04-24T02:24:40;3.20;;;0.60;;
69854;SDS011;57146;48.140;16.304;2023-04-24T02:27:07;3.63;;;0.85;;
69854;SDS011;57146;48.140;16.304;2023-04-24T02:29:35;2.50;;;0.40;;
69854;SDS011;57146;48.140;16.304;2023-04-24T02:32:03;3.13;;;0.30;;
69854;SDS011;57146;48.140;16.304;2023-04-24T02:34:30;2.63;;;0.20;;
69854;SDS011;57146;48.140;16.304;2023-04-24T02:37:22;2.60;;;0.45;;
69854;SDS011;57146;48.140;16.304;2023-04-24T02:39:49;3.03;;;0.45;;
69854;SDS011;57146;48.140;16.304;2023-04-24T02:42:15;2.10;;;0.40;;
69854;SDS011;57146;48.140;16.304;2023-04-24T02:44:42;3.77;;;0.40;;
69854;SDS011;57146;48.140;16.304;2023-04-24T02:47:09;2.17;;;0.30;;
69854;SDS011;57146;48.140;16.304;2023-04-24T02:49:36;2.58;;;0.28;;
69854;SDS011;57146;48.140;16.304;2023-04-24T02:52:04;2.00;;;0.20;;
69854;SDS011;57146;48.140;16.304;2023-04-24T02:54:33;2.72;;;0.30;;
69854;SDS011;57146;48.140;16.304;2023-04-24T02:57:00;2.70;;;0.40;;
69854;SDS011;57146;48.140;16.304;2023-04-24T02:59:28;2.67;;;0.35;;
69854;SDS011;57146;48.140;16.304;2023-04-24T03:01:55;2.95;;;0.40;;
69854;SDS011;57146;48.140;16.304;2023-04-24T03:04:22;2.35;;;0.35;;
69854;SDS011;57146;48.140;16.304;2023-04-24T03:07:13;2.15;;;0.30;;
69854;SDS011;57146;48.140;16.304;2023-04-24T03:09:40;3.00;;;0.27;;
69854;SDS011;57146;48.140;16.304;2023-04-24T03:12:08;2.72;;;0.20;;
69854;SDS011;57146;48.140;16.304;2023-04-24T03:14:34;2.50;;;0.40;;
69854;SDS011;57146;48.140;16.304;2023-04-24T03:17:01;1.95;;;0.22;;
69854;SDS011;57146;48.140;16.304;2023-04-24T03:19:28;3.00;;;0.43;;
69854;SDS011;57146;48.140;16.304;2023-04-24T03:22:04;2.23;;;0.30;;
69854;SDS011;57146;48.140;16.304;2023-04-24T03:24:33;2.33;;;0.22;;
69854;SDS011;57146;48.140;16.304;2023-04-24T03:27:00;3.03;;;0.50;;
69854;SDS011;57146;48.140;16.304;2023-04-24T03:29:45;2.20;;;0.20;;
69854;SDS011;57146;48.140;16.304;2023-04-24T03:32:16;2.00;;;0.30;;
69854;SDS011;57146;48.140;16.304;2023-04-24T03:34:45;2.40;;;0.23;;
69854;SDS011;57146;48.140;16.304;2023-04-24T03:37:14;2.10;;;0.20;;
69854;SDS011;57146;48.140;16.304;2023-04-24T03:39:48;2.90;;;0.30;;
69854;SDS011;57146;48.140;16.304;2023-04-24T03:42:20;2.15;;;0.20;;
69854;SDS011;57146;48.140;16.304;2023-04-24T03:44:54;2.65;;;0.28;;
69854;SDS011;57146;48.140;16.304;2023-04-24T03:47:26;2.63;;;0.20;;
69854;SDS011;57146;48.140;16.304;2023-04-24T03:49:57;2.33;;;0.30;;
69854;SDS011;57146;48.140;16.304;2023-04-24T03:52:24;3.17;;;0.60;;
69854;SDS011;57146;48.140;16.304;2023-04-24T03:54:51;4.07;;;0.63;;
69854;SDS011;57146;48.140;16.304;2023-04-24T03:57:18;3.22;;;0.50;;
69854;SDS011;57146;48.140;16.304;2023-04-24T03:59:57;6.43;;;3.00;;
69854;SDS011;57146;48.140;16.304;2023-04-24T04:02:25;10.65;;;5.57;;
69854;SDS011;57146;48.140;16.304;2023-04-24T04:04:52;8.15;;;4.13;;
69854;SDS011;57146;48.140;16.304;2023-04-24T04:07:19;5.07;;;1.40;;
69854;SDS011;57146;48.140;16.304;2023-04-24T04:09:46;2.83;;;0.60;;
69854;SDS011;57146;48.140;16.304;2023-04-24T04:12:14;2.53;;;0.40;;
69854;SDS011;57146;48.140;16.304;2023-04-24T04:14:42;2.67;;;0.30;;
69854;SDS011;57146;48.140;16.304;2023-04-24T04:17:09;3.60;;;0.47;;
69854;SDS011;57146;48.140;16.304;2023-04-24T04:19:42;2.72;;;0.40;;
69854;SDS011;57146;48.140;16.304;2023-04-24T04:22:09;3.22;;;0.30;;
69854;SDS011;57146;48.140;16.304;2023-04-24T04:24:44;2.63;;;0.43;;
69854;SDS011;57146;48.140;16.304;2023-04-24T04:27:16;2.45;;;0.50;;
69854;SDS011;57146;48.140;16.304;2023-04-24T04:29:58;2.30;;;0.50;;
69854;SDS011;57146;48.140;16.304;2023-04-24T04:32:28;3.22;;;0.60;;
69854;SDS011;57146;48.140;16.304;2023-04-24T04:34:56;4.05;;;0.60;;
69854;SDS011;57146;48.140;16.304;2023-04-24T04:37:27;3.03;;;0.30;;
69854;SDS011;57146;48.140;16.304;2023-04-24T04:40:20;3.00;;;0.40;;
69854;SDS011;57146;48.140;16.304;2023-04-24T04:43:14;3.30;;;0.73;;
69854;SDS011;57146;48.140;16.304;2023-04-24T04:45:51;2.97;;;0.30;;
69854;SDS011;57146;48.140;16.304;2023-04-24T04:48:37;3.83;;;0.40;;
69854;SDS011;57146;48.140;16.304;2023-04-24T04:51:07;3.50;;;0.50;;
69854;SDS011;57146;48.140;16.304;2023-04-24T04:53:33;3.72;;;0.57;;
69854;SDS011;57146;48.140;16.304;2023-04-24T04:56:26;4.00;;;0.65;;
69854;SDS011;57146;48.140;16.304;2023-04-24T04:58:56;3.42;;;0.40;;
69854;SDS011;57146;48.140;16.304;2023-04-24T05:01:25;3.03;;;0.43;;
69854;SDS011;57146;48.140;16.304;2023-04-24T05:03:54;3.87;;;0.47;;
69854;SDS011;57146;48.140;16.304;2023-04-24T05:06:21;3.65;;;0.47;;
69854;SDS011;57146;48.140;16.304;2023-04-24T05:08:51;2.72;;;0.30;;
69854;SDS011;57146;48.140;16.304;2023-04-24T05:11:36;3.63;;;0.32;;
69854;SDS011;57146;48.140;16.304;2023-04-24T05:14:31;3.40;;;0.30;;
69854;SDS011;57146;48.140;16.304;2023-04-24T05:16:59;2.03;;;0.30;;
69854;SDS011;57146;48.140;16.304;2023-04-24T05:19:29;3.92;;;0.40;;
69854;SDS011;57146;48.140;16.304;2023-04-24T05:21:56;2.95;;;0.50;;
69854;SDS011;57146;48.140;16.304;2023-04-24T05:24:25;3.60;;;0.70;;
69854;SDS011;57146;48.140;16.304;2023-04-24T05:27:10;2.72;;;0.45;;
69854;SDS011;57146;48.140;16.304;2023-04-24T05:29:39;3.33;;;0.53;;
69854;SDS011;57146;48.140;16.304;2023-04-24T05:32:08;7.45;;;0.75;;
69854;SDS011;57146;48.140;16.304;2023-04-24T05:34:35;4.60;;;0.55;;
69854;SDS011;57146;48.140;16.304;2023-04-24T05:37:01;4.93;;;1.30;;
69854;SDS011;57146;48.140;16.304;2023-04-24T05:39:28;3.00;;;0.40;;
69854;SDS011;57146;48.140;16.304;2023-04-24T05:42:00;3.90;;;0.60;;
69854;SDS011;57146;48.140;16.304;2023-04-24T05:44:27;2.90;;;0.43;;
69854;SDS011;57146;48.140;16.304;2023-04-24T05:46:56;8.63;;;1.20;;
69854;SDS011;57146;48.140;16.304;2023-04-24T05:49:24;3.53;;;0.43;;
69854;SDS011;57146;48.140;16.304;2023-04-24T05:52:15;3.53;;;0.55;;
69854;SDS011;57146;48.140;16.304;2023-04-24T05:54:42;4.33;;;0.40;;
69854;SDS011;57146;48.140;16.304;2023-04-24T05:57:16;2.88;;;0.40;;
69854;SDS011;57146;48.140;16.304;2023-04-24T06:00:03;3.33;;;0.40;;
69854;SDS011;57146;48.140;16.304;2023-04-24T06:02:38;2.00;;;0.20;;
69854;SDS011;57146;48.140;16.304;2023-04-24T06:05:09;2.10;;;0.20;;
69854;SDS011;57146;48.140;16.304;2023-04-24T06:07:37;3.57;;;0.30;;
69854;SDS011;57146;48.140;16.304;2023-04-24T06:10:06;2.00;;;0.10;;
69854;SDS011;57146;48.140;16.304;2023-04-24T06:12:39;1.83;;;0.10;;
69854;SDS011;57146;48.140;16.304;2023-04-24T06:15:12;4.05;;;0.30;;
69854;SDS011;57146;48.140;16.304;2023-04-24T06:17:52;2.65;;;0.30;;
69854;SDS011;57146;48.140;16.304;2023-04-24T06:20:20;2.33;;;0.03;;
69854;SDS011;57146;48.140;16.304;2023-04-24T06:22:47;1.83;;;0.10;;
69854;SDS011;57146;48.140;16.304;2023-04-24T06:25:14;2.50;;;0.10;;
69854;SDS011;57146;48.140;16.304;2023-04-24T06:28:07;1.88;;;0.10;;
69854;SDS011;57146;48.140;16.304;2023-04-24T06:30:35;1.65;;;0.10;;
69854;SDS011;57146;48.140;16.304;2023-04-24T06:33:02;2.90;;;0.10;;
69854;SDS011;57146;48.140;16.304;2023-04-24T06:35:46;3.35;;;0.10;;
69854;SDS011;57146;48.140;16.304;2023-04-24T06:38:14;2.35;;;0.20;;
69854;SDS011;57146;48.140;16.304;2023-04-24T06:40:42;1.50;;;0.00;;
69854;SDS011;57146;48.140;16.304;2023-04-24T06:43:09;1.92;;;0.00;;
69854;SDS011;57146;48.140;16.304;2023-04-24T06:45:38;4.43;;;0.10;;
69854;SDS011;57146;48.140;16.304;2023-04-24T06:48:05;2.22;;;0.03;;
69854;SDS011;57146;48.140;16.304;2023-04-24T06:50:32;1.20;;;0.00;;
69854;SDS011;57146;48.140;16.304;2023-04-24T06:52:59;8.30;;;0.17;;
69854;SDS011;57146;48.140;16.304;2023-04-24T06:55:26;13.63;;;0.63;;
69854;SDS011;57146;48.140;16.304;2023-04-24T06:57:54;1.93;;;0.10;;
69854;SDS011;57146;48.140;16.304;2023-04-24T07:00:21;1.33;;;0.00;;
69854;SDS011;57146;48.140;16.304;2023-04-24T07:02:48;2.28;;;0.00;;
69854;SDS011;57146;48.140;16.304;2023-04-24T07:05:17;15.32;;;0.90;;
69854;SDS011;57146;48.140;16.304;2023-04-24T07:07:44;2.22;;;0.00;;
69854;SDS011;57146;48.140;16.304;2023-04-24T07:10:11;3.40;;;0.00;;
69854;SDS011;57146;48.140;16.304;2023-04-24T07:12:39;2.72;;;0.00;;
69854;SDS011;57146;48.140;16.304;2023-04-24T07:15:06;3.03;;;0.10;;
69854;SDS011;57146;48.140;16.304;2023-04-24T07:17:34;3.70;;;0.10;;
69854;SDS011;57146;48.140;16.304;2023-04-24T07:20:01;1.92;;;0.00;;
69854;SDS011;57146;48.140;16.304;2023-04-24T07:22:29;1.80;;;0.07;;
69854;SDS011;57146;48.140;16.304;2023-04-24T07:24:56;6.18;;;0.10;;
69854;SDS011;57146;48.140;16.304;2023-04-24T07:27:23;1.75;;;0.00;;
69854;SDS011;57146;48.140;16.304;2023-04-24T07:29:51;1.58;;;0.00;;
69854;SDS011;57146;48.140;16.304;2023-04-24T07:32:18;1.52;;;0.00;;
69854;SDS011;57146;48.140;16.304;2023-04-24T07:34:45;1.30;;;0.10;;
69854;SDS011;57146;48.140;16.304;2023-04-24T07:37:12;2.92;;;0.08;;
69854;SDS011;57146;48.140;16.304;2023-04-24T07:39:40;11.40;;;0.45;;
69854;SDS011;57146;48.140;16.304;2023-04-24T07:42:07;6.50;;;0.25;;
69854;SDS011;57146;48.140;16.304;2023-04-24T07:44:34;1.65;;;0.00;;
69854;SDS011;57146;48.140;16.304;2023-04-24T07:47:01;2.43;;;0.10;;
69854;SDS011;57146;48.140;16.304;2023-04-24T07:49:28;2.03;;;0.10;;
69854;SDS011;57146;48.140;16.304;2023-04-24T07:51:55;1.88;;;0.00;;
69854;SDS011;57146;48.140;16.304;2023-04-24T07:54:22;2.92;;;0.00;;
69854;SDS011;57146;48.140;16.304;2023-04-24T07:56:49;2.30;;;0.17;;
69854;SDS011;57146;48.140;16.304;2023-04-24T07:59:16;3.67;;;0.10;;
69854;SDS011;57146;48.140;16.304;2023-04-24T08:01:43;1.90;;;0.10;;
69854;SDS011;57146;48.140;16.304;2023-04-24T08:04:09;11.80;;;0.28;;
69854;SDS011;57146;48.140;16.304;2023-04-24T08:06:37;5.45;;;0.43;;
69854;SDS011;57146;48.140;16.304;2023-04-24T08:09:04;2.70;;;0.00;;
69854;SDS011;57146;48.140;16.304;2023-04-24T08:11:36;1.80;;;0.00;;
69854;SDS011;57146;48.140;16.304;2023-04-24T08:14:03;1.63;;;0.00;;
69854;SDS011;57146;48.140;16.304;2023-04-24T08:16:32;2.10;;;0.00;;
69854;SDS011;57146;48.140;16.304;2023-04-24T08:18:59;1.77;;;0.10;;
69854;SDS011;57146;48.140;16.304;2023-04-24T08:21:29;2.60;;;0.10;;
69854;SDS011;57146;48.140;16.304;2023-04-24T08:23:56;2.60;;;0.00;;
69854;SDS011;57146;48.140;16.304;2023-04-24T08:26:22;1.60;;;0.20;;
69854;SDS011;57146;48.140;16.304;2023-04-24T08:28:50;3.05;;;0.13;;
69854;SDS011;57146;48.140;16.304;2023-04-24T08:31:19;1.83;;;0.10;;
69854;SDS011;57146;48.140;16.304;2023-04-24T08:33:46;3.35;;;0.10;;
69854;SDS011;57146;48.140;16.304;2023-04-24T08:36:13;1.53;;;0.10;;
69854;SDS011;57146;48.140;16.304;2023-04-24T08:38:40;1.65;;;0.00;;
69854;SDS011;57146;48.140;16.304;2023-04-24T08:41:08;1.55;;;0.00;;
69854;SDS011;57146;48.140;16.304;2023-04-24T08:43:36;1.70;;;0.00;;
69854;SDS011;57146;48.140;16.304;2023-04-24T08:46:03;2.05;;;0.00;;
69854;SDS011;57146;48.140;16.304;2023-04-24T08:49:01;1.50;;;0.10;;
69854;SDS011;57146;48.140;16.304;2023-04-24T08:51:30;2.17;;;0.00;;
69854;SDS011;57146;48.140;16.304;2023-04-24T08:53:58;0.98;;;0.00;;
69854;SDS011;57146;48.140;16.304;2023-04-24T08:56:29;0.75;;;0.00;;
69854;SDS011;57146;48.140;16.304;2023-04-24T08:58:59;1.60;;;0.15;;
69854;SDS011;57146;48.140;16.304;2023-04-24T09:01:27;0.90;;;0.00;;
69854;SDS011;57146;48.140;16.304;2023-04-24T09:03:58;0.50;;;0.00;;
69854;SDS011;57146;48.140;16.304;2023-04-24T09:06:30;1.48;;;0.00;;
69854;SDS011;57146;48.140;16.304;2023-04-24T09:09:01;1.05;;;0.00;;
69854;SDS011;57146;48.140;16.304;2023-04-24T09:11:30;0.75;;;0.00;;
69854;SDS011;57146;48.140;16.304;2023-04-24T09:13:57;0.57;;;0.00;;
69854;SDS011;57146;48.140;16.304;2023-04-24T09:16:49;1.38;;;0.00;;
69854;SDS011;57146;48.140;16.304;2023-04-24T09:19:18;0.80;;;0.00;;
69854;SDS011;57146;48.140;16.304;2023-04-24T09:21:46;0.55;;;0.00;;
69854;SDS011;57146;48.140;16.304;2023-04-24T09:24:16;0.52;;;0.00;;
69854;SDS011;57146;48.140;16.304;2023-04-24T09:26:46;1.33;;;0.00;;
69854;SDS011;57146;48.140;16.304;2023-04-24T09:29:38;0.65;;;0.00;;
69854;SDS011;57146;48.140;16.304;2023-04-24T09:32:17;0.93;;;0.00;;
69854;SDS011;57146;48.140;16.304;2023-04-24T09:34:46;1.70;;;0.10;;
69854;SDS011;57146;48.140;16.304;2023-04-24T09:37:28;0.40;;;0.00;;
69854;SDS011;57146;48.140;16.304;2023-04-24T09:40:07;1.63;;;0.00;;
69854;SDS011;57146;48.140;16.304;2023-04-24T09:42:38;1.20;;;0.00;;
69854;SDS011;57146;48.140;16.304;2023-04-24T09:45:09;0.77;;;0.00;;
69854;SDS011;57146;48.140;16.304;2023-04-24T09:47:43;1.00;;;0.00;;
69854;SDS011;57146;48.140;16.304;2023-04-24T09:50:11;0.80;;;0.00;;
69854;SDS011;57146;48.140;16.304;2023-04-24T09:52:44;0.90;;;0.00;;
69854;SDS011;57146;48.140;16.304;2023-04-24T09:55:25;0.70;;;0.00;;
69854;SDS011;57146;48.140;16.304;2023-04-24T09:57:52;0.82;;;0.00;;
69854;SDS011;57146;48.140;16.304;2023-04-24T10:00:25;0.60;;;0.00;;
69854;SDS011;57146;48.140;16.304;2023-04-24T10:02:56;0.80;;;0.00;;
69854;SDS011;57146;48.140;16.304;2023-04-24T10:05:31;0.40;;;0.00;;
69854;SDS011;57146;48.140;16.304;2023-04-24T10:08:07;1.15;;;0.00;;
69854;SDS011;57146;48.140;16.304;2023-04-24T10:11:00;0.75;;;0.00;;
69854;SDS011;57146;48.140;16.304;2023-04-24T10:13:28;1.45;;;0.00;;
69854;SDS011;57146;48.140;16.304;2023-04-24T10:15:55;1.00;;;0.00;;
69854;SDS011;57146;48.140;16.304;2023-04-24T10:18:24;0.90;;;0.00;;
69854;SDS011;57146;48.140;16.304;2023-04-24T10:20:53;2.42;;;0.03;;
69854;SDS011;57146;48.140;16.304;2023-04-24T10:23:22;0.60;;;0.00;;
69854;SDS011;57146;48.140;16.304;2023-04-24T10:25:53;0.50;;;0.00;;
69854;SDS011;57146;48.140;16.304;2023-04-24T10:28:21;1.45;;;0.00;;
69854;SDS011;57146;48.140;16.304;2023-04-24T10:30:52;0.80;;;0.00;;
69854;SDS011;57146;48.140;16.304;2023-04-24T10:33:21;0.60;;;0.00;;
69854;SDS011;57146;48.140;16.304;2023-04-24T10:35:50;2.13;;;0.00;;
69854;SDS011;57146;48.140;16.304;2023-04-24T10:38:21;1.20;;;0.00;;
69854;SDS011;57146;48.140;16.304;2023-04-24T10:40:50;0.80;;;0.00;;
69854;SDS011;57146;48.140;16.304;2023-04-24T10:43:18;2.47;;;0.00;;
69854;SDS011;57146;48.140;16.304;2023-04-24T10:46:01;1.25;;;0.00;;
69854;SDS011;57146;48.140;16.304;2023-04-24T10:48:29;0.77;;;0.00;;
69854;SDS011;57146;48.140;16.304;2023-04-24T10:50:57;1.02;;;0.00;;
69854;SDS011;57146;48.140;16.304;2023-04-24T10:53:28;0.80;;;0.00;;
69854;SDS011;57146;48.140;16.304;2023-04-24T10:56:07;1.17;;;0.00;;
69854;SDS011;57146;48.140;16.304;2023-04-24T10:58:45;1.63;;;0.00;;
69854;SDS011;57146;48.140;16.304;2023-04-24T11:01:30;0.80;;;0.00;;
69854;SDS011;57146;48.140;16.304;2023-04-24T11:04:00;1.23;;;0.00;;
69854;SDS011;57146;48.140;16.304;2023-04-24T11:09:10;1.47;;;0.00;;
69854;SDS011;57146;48.140;16.304;2023-04-24T11:11:37;0.82;;;0.00;;
69854;SDS011;57146;48.140;16.304;2023-04-24T11:14:15;0.80;;;0.00;;
69854;SDS011;57146;48.140;16.304;2023-04-24T11:16:52;0.90;;;0.00;;
69854;SDS011;57146;48.140;16.304;2023-04-24T11:19:22;0.70;;;0.00;;
69854;SDS011;57146;48.140;16.304;2023-04-24T11:22:00;1.13;;;0.00;;
69854;SDS011;57146;48.140;16.304;2023-04-24T11:34:50;2.47;;;0.00;;
69854;SDS011;57146;48.140;16.304;2023-04-24T11:37:18;1.25;;;0.00;;
69854;SDS011;57146;48.140;16.304;2023-04-24T11:39:53;0.80;;;0.00;;
69854;SDS011;57146;48.140;16.304;2023-04-24T11:42:24;0.90;;;0.10;;
69854;SDS011;57146;48.140;16.304;2023-04-24T11:44:53;1.85;;;0.00;;
69854;SDS011;57146;48.140;16.304;2023-04-24T11:47:31;0.40;;;0.00;;
69854;SDS011;57146;48.140;16.304;2023-04-24T11:50:00;0.70;;;0.00;;
69854;SDS011;57146;48.140;16.304;2023-04-24T11:52:28;1.27;;;0.00;;
69854;SDS011;57146;48.140;16.304;2023-04-24T11:54:56;1.50;;;0.00;;
69854;SDS011;57146;48.140;16.304;2023-04-24T11:57:25;3.38;;;0.20;;
69854;SDS011;57146;48.140;16.304;2023-04-24T11:59:52;0.87;;;0.00;;
69854;SDS011;57146;48.140;16.304;2023-04-24T12:02:20;2.03;;;0.00;;
69854;SDS011;57146;48.140;16.304;2023-04-24T12:04:52;1.98;;;0.10;;
69854;SDS011;57146;48.140;16.304;2023-04-24T12:07:20;1.35;;;0.00;;
69854;SDS011;57146;48.140;16.304;2023-04-24T12:09:58;1.75;;;0.00;;
69854;SDS011;57146;48.140;16.304;2023-04-24T12:12:28;1.20;;;0.00;;
69854;SDS011;57146;48.140;16.304;2023-04-24T12:14:56;1.33;;;0.00;;
69854;SDS011;57146;48.140;16.304;2023-04-24T12:20:02;0.98;;;0.00;;
69854;SDS011;57146;48.140;16.304;2023-04-24T12:22:47;0.90;;;0.00;;
69854;SDS011;57146;48.140;16.304;2023-04-24T12:25:25;0.90;;;0.00;;
69854;SDS011;57146;48.140;16.304;2023-04-24T12:30:32;1.45;;;0.32;;
69854;SDS011;57146;48.140;16.304;2023-04-24T12:33:02;1.10;;;0.00;;
69854;SDS011;57146;48.140;16.304;2023-04-24T12:35:31;0.60;;;0.00;;
69854;SDS011;57146;48.140;16.304;2023-04-24T12:38:12;0.80;;;0.00;;
69854;SDS011;57146;48.140;16.304;2023-04-24T12:40:42;0.88;;;0.00;;
69854;SDS011;57146;48.140;16.304;2023-04-24T12:43:13;0.80;;;0.00;;
69854;SDS011;57146;48.140;16.304;2023-04-24T12:45:41;1.60;;;0.10;;
69854;SDS011;57146;48.140;16.304;2023-04-24T12:48:08;1.00;;;0.00;;
69854;SDS011;57146;48.140;16.304;2023-04-24T12:50:35;0.80;;;0.00;;
69854;SDS011;57146;48.140;16.304;2023-04-24T12:53:02;0.70;;;0.00;;
69854;SDS011;57146;48.140;16.304;2023-04-24T12:55:32;0.80;;;0.00;;
69854;SDS011;57146;48.140;16.304;2023-04-24T12:58:01;1.55;;;0.00;;
69854;SDS011;57146;48.140;16.304;2023-04-24T13:00:30;1.65;;;0.00;;
69854;SDS011;57146;48.140;16.304;2023-04-24T13:03:00;0.80;;;0.00;;
69854;SDS011;57146;48.140;16.304;2023-04-24T13:05:28;1.63;;;0.00;;
69854;SDS011;57146;48.140;16.304;2023-04-24T13:07:58;2.53;;;0.00;;
69854;SDS011;57146;48.140;16.304;2023-04-24T13:10:25;1.23;;;0.00;;
69854;SDS011;57146;48.140;16.304;2023-04-24T13:12:53;2.85;;;0.00;;
69854;SDS011;57146;48.140;16.304;2023-04-24T13:15:20;1.43;;;0.00;;
69854;SDS011;57146;48.140;16.304;2023-04-24T13:17:47;0.68;;;0.00;;
69854;SDS011;57146;48.140;16.304;2023-04-24T13:20:14;0.80;;;0.00;;
69854;SDS011;57146;48.140;16.304;2023-04-24T13:22:41;2.25;;;0.00;;
69854;SDS011;57146;48.140;16.304;2023-04-24T13:25:10;0.77;;;0.00;;
69854;SDS011;57146;48.140;16.304;2023-04-24T13:27:38;0.77;;;0.00;;
69854;SDS011;57146;48.140;16.304;2023-04-24T13:30:06;0.98;;;0.00;;
69854;SDS011;57146;48.140;16.304;2023-04-24T13:32:35;0.90;;;0.00;;
69854;SDS011;57146;48.140;16.304;2023-04-24T13:35:02;1.15;;;0.00;;
69854;SDS011;57146;48.140;16.304;2023-04-24T13:37:29;1.60;;;0.00;;
69854;SDS011;57146;48.140;16.304;2023-04-24T13:39:56;1.30;;;0.00;;
69854;SDS011;57146;48.140;16.304;2023-04-24T13:42:24;1.15;;;0.00;;
69854;SDS011;57146;48.140;16.304;2023-04-24T13:44:51;1.70;;;0.00;;
69854;SDS011;57146;48.140;16.304;2023-04-24T13:47:18;1.45;;;0.00;;
69854;SDS011;57146;48.140;16.304;2023-04-24T13:49:46;3.35;;;0.00;;
69854;SDS011;57146;48.140;16.304;2023-04-24T13:52:13;0.70;;;0.00;;
69854;SDS011;57146;48.140;16.304;2023-04-24T13:54:41;0.90;;;0.00;;
69854;SDS011;57146;48.140;16.304;2023-04-24T13:57:08;0.93;;;0.00;;
69854;SDS011;57146;48.140;16.304;2023-04-24T13:59:35;3.40;;;0.00;;
69854;SDS011;57146;48.140;16.304;2023-04-24T14:02:02;2.00;;;0.00;;
69854;SDS011;57146;48.140;16.304;2023-04-24T14:04:29;2.50;;;0.00;;
69854;SDS011;57146;48.140;16.304;2023-04-24T14:06:57;2.60;;;0.00;;
69854;SDS011;57146;48.140;16.304;2023-04-24T14:09:26;0.80;;;0.00;;
69854;SDS011;57146;48.140;16.304;2023-04-24T14:11:53;0.98;;;0.00;;
69854;SDS011;57146;48.140;16.304;2023-04-24T14:14:20;0.60;;;0.00;;
69854;SDS011;57146;48.140;16.304;2023-04-24T14:16:47;1.00;;;0.00;;
69854;SDS011;57146;48.140;16.304;2023-04-24T14:19:14;1.05;;;0.00;;
69854;SDS011;57146;48.140;16.304;2023-04-24T14:22:05;1.33;;;0.00;;
69854;SDS011;57146;48.140;16.304;2023-04-24T14:24:36;0.95;;;0.00;;
69854;SDS011;57146;48.140;16.304;2023-04-24T14:27:05;0.70;;;0.00;;
69854;SDS011;57146;48.140;16.304;2023-04-24T14:29:35;0.97;;;0.00;;
69854;SDS011;57146;48.140;16.304;2023-04-24T14:32:05;0.88;;;0.00;;
69854;SDS011;57146;48.140;16.304;2023-04-24T14:34:39;2.70;;;0.10;;
69854;SDS011;57146;48.140;16.304;2023-04-24T14:37:10;0.88;;;0.00;;
69854;SDS011;57146;48.140;16.304;2023-04-24T14:39:40;3.63;;;0.10;;
69854;SDS011;57146;48.140;16.304;2023-04-24T14:42:17;1.47;;;0.00;;
69854;SDS011;57146;48.140;16.304;2023-04-24T14:44:48;1.17;;;0.00;;
69854;SDS011;57146;48.140;16.304;2023-04-24T14:47:18;2.10;;;0.10;;
69854;SDS011;57146;48.140;16.304;2023-04-24T14:49:49;1.15;;;0.00;;
69854;SDS011;57146;48.140;16.304;2023-04-24T14:52:20;1.63;;;0.03;;
69854;SDS011;57146;48.140;16.304;2023-04-24T14:54:48;1.77;;;0.00;;
69854;SDS011;57146;48.140;16.304;2023-04-24T14:57:16;0.82;;;0.00;;
69854;SDS011;57146;48.140;16.304;2023-04-24T14:59:50;1.00;;;0.00;;
69854;SDS011;57146;48.140;16.304;2023-04-24T15:02:21;4.28;;;0.00;;
69854;SDS011;57146;48.140;16.304;2023-04-24T15:04:51;1.08;;;0.00;;
69854;SDS011;57146;48.140;16.304;2023-04-24T15:07:22;1.10;;;0.00;;
69854;SDS011;57146;48.140;16.304;2023-04-24T15:09:51;1.48;;;0.00;;